createdAt,value
2018-09-18T00:02:17.351Z,7.00
2018-09-18T00:07:20.384Z,6.50
2018-09-18T00:12:23.406Z,7.50
2018-09-18T00:17:26.451Z,7.40
2018-09-18T00:22:29.458Z,7.60
2018-09-18T00:27:32.492Z,8.10
2018-09-18T00:32:35.511Z,7.30
2018-09-18T00:37:38.521Z,7.10
2018-09-18T00:42:41.542Z,6.03
2018-09-18T00:47:44.554Z,7.57
2018-09-18T00:52:47.591Z,6.70
2018-09-18T00:57:50.606Z,7.00
2018-09-18T01:02:53.603Z,6.67
2018-09-18T01:07:56.618Z,6.70
2018-09-18T01:12:59.620Z,6.23
2018-09-18T01:18:02.643Z,7.17
2018-09-18T01:23:05.646Z,6.67
2018-09-18T01:28:08.670Z,7.10
2018-09-18T01:33:11.733Z,6.37
2018-09-18T01:38:14.740Z,6.60
2018-09-18T01:43:17.731Z,6.90
2018-09-18T01:48:20.760Z,6.40
2018-09-18T01:53:23.771Z,6.17
2018-09-18T01:58:26.813Z,6.37
2018-09-18T02:03:29.882Z,6.30
2018-09-18T02:08:32.942Z,6.30
2018-09-18T02:13:35.971Z,6.40
2018-09-18T02:18:38.991Z,7.50
2018-09-18T02:23:42.020Z,6.20
2018-09-18T02:28:45.056Z,7.30
2018-09-18T02:33:48.075Z,6.70
2018-09-18T02:38:51.075Z,7.50
2018-09-18T02:43:54.072Z,6.53
2018-09-18T02:48:57.074Z,6.60
2018-09-18T02:54:00.075Z,7.30
2018-09-18T02:59:03.070Z,8.40
2018-09-18T03:04:06.110Z,6.67
2018-09-18T03:09:10.354Z,7.40
2018-09-18T03:14:13.378Z,6.57
2018-09-18T03:19:16.408Z,6.70
2018-09-18T03:24:19.415Z,7.03
2018-09-18T03:29:22.436Z,6.77
2018-09-18T03:34:25.436Z,6.57
2018-09-18T03:39:28.460Z,7.60
2018-09-18T03:44:31.472Z,6.80
2018-09-18T03:49:34.483Z,6.63
2018-09-18T03:54:37.556Z,8.10
2018-09-18T03:59:40.588Z,7.00
2018-09-18T04:04:43.640Z,7.17
2018-09-18T04:09:46.627Z,7.50
2018-09-18T04:14:49.631Z,7.50
2018-09-18T04:19:52.639Z,7.83
2018-09-18T04:24:55.662Z,7.60
2018-09-18T04:29:58.690Z,7.70
2018-09-18T04:35:01.704Z,7.43
2018-09-18T04:40:04.694Z,7.90
2018-09-18T04:45:07.703Z,8.40
2018-09-18T04:50:10.743Z,7.87
2018-09-18T04:55:13.755Z,7.67
2018-09-18T05:00:16.764Z,8.00
2018-09-18T05:05:19.766Z,7.63
2018-09-18T05:10:22.755Z,7.87
2018-09-18T05:15:25.766Z,8.10
2018-09-18T05:20:28.768Z,8.57
2018-09-18T05:25:31.893Z,8.23
2018-09-18T05:30:34.913Z,9.90
2018-09-18T05:35:40.001Z,8.53
2018-09-18T05:40:43.205Z,8.10
2018-09-18T05:45:46.334Z,8.63
2018-09-18T05:50:49.339Z,8.67
2018-09-18T05:55:52.340Z,9.83
2018-09-18T06:00:55.403Z,10.20
2018-09-18T06:05:58.576Z,11.40
2018-09-18T06:11:01.595Z,10.23
2018-09-18T06:16:04.736Z,10.33
2018-09-18T06:21:07.791Z,10.87
2018-09-18T06:26:10.875Z,9.80
2018-09-18T06:31:13.842Z,9.53
2018-09-18T06:36:16.842Z,9.83
2018-09-18T06:41:20.415Z,9.73
2018-09-18T06:46:23.464Z,9.73
2018-09-18T06:51:26.511Z,8.40
2018-09-18T06:56:29.554Z,9.20
2018-09-18T07:01:32.630Z,8.70
2018-09-18T07:06:35.674Z,8.27
2018-09-18T07:11:38.693Z,9.77
2018-09-18T07:16:41.717Z,7.70
2018-09-18T07:21:44.786Z,9.00
2018-09-18T07:26:47.811Z,7.53
2018-09-18T07:31:51.085Z,8.10
2018-09-18T07:36:54.348Z,7.63
2018-09-18T07:41:57.365Z,7.67
2018-09-18T07:47:00.416Z,8.63
2018-09-18T07:52:03.421Z,8.33
2018-09-18T07:57:06.594Z,7.40
2018-09-18T08:02:09.598Z,7.97
2018-09-18T08:07:12.730Z,7.03
2018-09-18T08:12:15.808Z,6.93
2018-09-18T08:17:20.099Z,7.17
2018-09-18T08:22:23.165Z,7.60
2018-09-18T08:27:26.284Z,7.43
2018-09-18T08:32:29.348Z,8.47
2018-09-18T08:37:32.364Z,7.87
2018-09-18T08:42:35.419Z,8.80
2018-09-18T08:47:38.468Z,7.80
2018-09-18T08:52:41.578Z,8.90
2018-09-18T08:57:44.558Z,7.43
2018-09-18T09:02:47.569Z,8.23
2018-09-18T09:07:50.644Z,9.27
2018-09-18T09:12:54.397Z,7.97
2018-09-18T09:17:57.512Z,7.63
2018-09-18T09:23:00.652Z,7.83
2018-09-18T09:28:03.603Z,8.03
2018-09-18T09:33:06.341Z,7.33
2018-09-18T09:38:09.343Z,7.80
2018-09-18T09:43:12.783Z,7.20
2018-09-18T09:48:16.321Z,6.70
2018-09-18T09:53:19.336Z,7.07
2018-09-18T09:58:22.334Z,6.20
2018-09-18T10:03:25.363Z,5.40
2018-09-18T10:08:28.361Z,5.10
2018-09-18T10:13:31.379Z,7.80
2018-09-18T10:18:34.359Z,5.70
2018-09-18T10:23:37.393Z,4.97
2018-09-18T10:28:40.401Z,4.37
2018-09-18T10:33:43.416Z,4.83
2018-09-18T10:38:46.439Z,5.00
2018-09-18T10:43:49.426Z,4.90
2018-09-18T10:48:53.345Z,5.27
2018-09-18T10:53:56.330Z,4.60
2018-09-18T10:58:59.336Z,9.27
2018-09-18T11:04:02.409Z,4.10
2018-09-18T11:09:07.491Z,3.60
2018-09-18T11:14:12.094Z,4.10
2018-09-18T11:19:15.112Z,3.70
2018-09-18T11:24:18.352Z,3.80
2018-09-18T11:29:21.357Z,3.80
2018-09-18T11:34:24.350Z,4.53
2018-09-18T11:39:27.347Z,4.03
2018-09-18T11:44:30.425Z,3.80
2018-09-18T11:49:33.426Z,4.30
2018-09-18T11:54:36.550Z,4.13
2018-09-18T11:59:39.553Z,4.20
2018-09-18T12:04:42.560Z,4.37
2018-09-18T12:09:45.566Z,3.97
2018-09-18T12:14:48.611Z,3.63
2018-09-18T12:19:51.680Z,3.80
2018-09-18T12:24:54.825Z,3.83
2018-09-18T12:29:57.833Z,3.80
2018-09-18T12:35:00.865Z,3.43
2018-09-18T12:40:03.927Z,4.60
2018-09-18T12:45:06.941Z,4.23
2018-09-18T12:50:10.142Z,4.47
2018-09-18T12:55:13.004Z,4.63
2018-09-18T13:00:16.134Z,4.50
2018-09-18T13:05:19.151Z,4.87
2018-09-18T13:10:22.207Z,4.80
2018-09-18T13:15:25.307Z,4.30
2018-09-18T13:20:28.343Z,4.23
2018-09-18T13:25:31.391Z,3.60
2018-09-18T13:30:35.021Z,3.97
2018-09-18T13:35:37.935Z,4.17
2018-09-18T13:40:40.991Z,4.50
2018-09-18T13:45:44.098Z,4.20
2018-09-18T13:50:47.101Z,4.10
2018-09-18T13:55:50.171Z,3.57
2018-09-18T14:00:53.255Z,4.03
2018-09-18T14:05:56.350Z,9.33
2018-09-18T14:10:59.330Z,4.13
2018-09-18T14:16:02.523Z,3.80
2018-09-18T14:21:05.534Z,3.40
2018-09-18T14:26:08.716Z,4.20
2018-09-18T14:31:11.775Z,3.90
2018-09-18T14:36:14.866Z,3.40
2018-09-18T14:41:17.892Z,3.73
2018-09-18T14:46:20.982Z,3.30
2018-09-18T14:51:23.984Z,3.83
2018-09-18T14:56:27.100Z,2.87
2018-09-18T15:01:30.117Z,3.13
2018-09-18T15:06:33.163Z,3.10
2018-09-18T15:11:36.189Z,2.40
2018-09-18T15:16:39.202Z,2.30
2018-09-18T15:21:42.273Z,2.73
2018-09-18T15:26:45.376Z,2.70
2018-09-18T15:31:48.414Z,2.67
2018-09-18T15:36:51.443Z,3.20
2018-09-18T15:41:54.464Z,2.73
2018-09-18T15:46:57.491Z,2.40
2018-09-18T15:52:00.995Z,2.87
2018-09-18T15:57:03.997Z,2.80
2018-09-18T16:02:07.398Z,2.60
2018-09-18T16:07:10.407Z,2.80
2018-09-18T16:12:13.410Z,3.30
2018-09-18T16:17:16.444Z,3.00
2018-09-18T16:22:19.553Z,2.77
2018-09-18T16:27:22.484Z,3.17
2018-09-18T16:32:25.576Z,3.20
2018-09-18T16:37:28.683Z,4.27
2018-09-18T16:42:31.723Z,4.20
2018-09-18T16:47:34.791Z,4.10
2018-09-18T16:52:37.816Z,7.10
2018-09-18T16:57:40.836Z,6.10
2018-09-18T17:02:43.845Z,6.40
2018-09-18T17:07:46.901Z,5.20
2018-09-18T17:12:49.911Z,4.80
2018-09-18T17:17:53.015Z,4.00
2018-09-18T17:22:56.045Z,4.30
2018-09-18T17:27:59.090Z,6.00
2018-09-18T17:33:02.242Z,4.37
2018-09-18T17:38:05.612Z,3.90
2018-09-18T17:43:08.611Z,4.57
2018-09-18T17:48:11.624Z,4.70
2018-09-18T17:53:14.674Z,5.80
2018-09-18T17:58:17.730Z,5.70
2018-09-18T18:03:20.752Z,6.40
2018-09-18T18:08:23.869Z,6.97
2018-09-18T18:13:27.094Z,5.83
2018-09-18T18:18:30.280Z,5.67
2018-09-18T18:23:33.424Z,5.63
2018-09-18T18:28:36.403Z,6.27
2018-09-18T18:33:39.729Z,7.33
2018-09-18T18:38:42.803Z,5.83
2018-09-18T18:43:45.948Z,6.90
2018-09-18T18:48:49.001Z,7.17
2018-09-18T18:53:52.063Z,7.47
2018-09-18T18:58:55.064Z,6.50
2018-09-18T19:03:58.132Z,5.90
2018-09-18T19:09:01.339Z,7.30
2018-09-18T19:14:04.399Z,6.50
2018-09-18T19:19:07.505Z,7.37
2018-09-18T19:24:10.806Z,7.07
2018-09-18T19:29:13.822Z,7.13
2018-09-18T19:34:16.935Z,6.97
2018-09-18T19:39:20.095Z,6.73
2018-09-18T19:44:23.177Z,6.77
2018-09-18T19:49:26.252Z,6.30
2018-09-18T19:54:29.296Z,7.13
2018-09-18T19:59:32.344Z,7.03
2018-09-18T20:04:35.483Z,7.23
2018-09-18T20:09:38.545Z,6.93
2018-09-18T20:14:41.761Z,7.30
2018-09-18T20:19:44.759Z,6.93
2018-09-18T20:24:47.784Z,7.30
2018-09-18T20:29:50.893Z,7.27
2018-09-18T20:34:54.023Z,6.33
2018-09-18T20:39:57.125Z,6.27
2018-09-18T20:45:00.171Z,6.03
2018-09-18T20:50:03.185Z,6.67
2018-09-18T20:55:06.388Z,6.13
2018-09-18T21:00:09.466Z,5.10
2018-09-18T21:05:12.490Z,5.90
2018-09-18T21:10:15.520Z,6.87
2018-09-18T21:15:18.639Z,5.93
2018-09-18T21:20:21.691Z,6.20
2018-09-18T21:25:32.908Z,5.27
2018-09-18T21:30:35.961Z,6.43
2018-09-18T21:35:39.098Z,5.60
2018-09-18T21:40:42.202Z,5.60
2018-09-18T21:45:46.436Z,5.20
2018-09-18T21:50:49.498Z,4.97
2018-09-18T21:55:52.703Z,5.53
2018-09-18T22:00:56.016Z,5.90
2018-09-18T22:05:59.134Z,6.37
2018-09-18T22:11:02.226Z,6.10
2018-09-18T22:16:05.316Z,5.77
2018-09-18T22:21:08.335Z,6.20
2018-09-18T22:26:11.382Z,5.60
2018-09-18T22:31:14.411Z,5.60
2018-09-18T22:36:17.520Z,5.50
2018-09-18T22:41:20.533Z,5.73
2018-09-18T22:46:23.558Z,5.50
2018-09-18T22:51:26.598Z,5.97
2018-09-18T22:56:29.609Z,5.30
2018-09-18T23:01:32.621Z,5.40
2018-09-18T23:06:35.638Z,5.87
2018-09-18T23:11:38.674Z,7.00
2018-09-18T23:16:41.883Z,6.43
2018-09-18T23:21:44.995Z,5.93
2018-09-18T23:26:48.026Z,6.53
2018-09-18T23:31:51.038Z,6.43
2018-09-18T23:36:54.051Z,6.80
2018-09-18T23:41:57.089Z,5.40
2018-09-18T23:47:00.111Z,5.90
2018-09-18T23:52:03.143Z,6.30
2018-09-18T23:57:06.242Z,5.07
